VTBD/DMK METAR and TAF weather

Enter ICAO airport designator
Station Type Date Time Source
VTBD METAR 2022/08/16 18:30 UTC NOAA

VTBD 161830Z 11004KT 9999 -RA FEW020 SCT040 25/25 Q1007 NOSIG


Station Type Date Time Source
VTBD Decoded METAR 2022/08/16 18:30 UTC NOAA

Don Muang, Thailand (VTBD) 13-55N 100-36E 12M
Aug 16, 2022 - 02:30 PM EDT / 2022.08.16 1830 UTC
Wind: from the ESE (110 degrees) at 5 MPH (4 KT):0
Visibility: greater than 7 mile(s):0
Sky conditions: partly cloudy
Weather: light rain
Temperature: 77 F (25 C)
Dew Point: 77 F (25 C)
Relative Humidity: 100%
Pressure (altimeter): 29.74 in. Hg (1007 hPa)
ob: VTBD 161830Z 11004KT 9999 -RA FEW020 SCT040 25/25 Q1007 NOSIG
cycle: 18

Station Type Date Time Source
VTBD TAF 2022/08/16 18:36 UTC NOAA

TAF TAF VTBD 161700Z 1618/1724 12005KT 9999 FEW020
BECMG 1703/1705 22008KT
TEMPO 1709/1713 VRB15KT 3000 TSRA FEW018CB SCT030 BKN100
BECMG 1716/1718 10005KT

Example: see airport list